sensor_id;sensor_type;location;lat;lon;timestamp;pressure;altitude;pressure_sealevel;temperature;humidity
52249;BME280;38541;48.130;8.378;2023-02-25T00:00:29;91562.44;;;2.11;83.19
52249;BME280;38541;48.130;8.378;2023-02-25T00:02:57;91539.66;;;2.13;82.90
52249;BME280;38541;48.130;8.378;2023-02-25T00:05:24;91550.78;;;2.14;82.48
52249;BME280;38541;48.130;8.378;2023-02-25T00:07:52;91563.81;;;2.19;82.88
52249;BME280;38541;48.130;8.378;2023-02-25T00:10:19;91557.13;;;2.23;83.30
52249;BME280;38541;48.130;8.378;2023-02-25T00:12:45;91551.78;;;2.30;83.06
52249;BME280;38541;48.130;8.378;2023-02-25T00:15:12;91552.59;;;2.36;83.38
52249;BME280;38541;48.130;8.378;2023-02-25T00:17:38;91544.53;;;2.32;83.10
52249;BME280;38541;48.130;8.378;2023-02-25T00:20:08;91538.06;;;2.35;82.52
52249;BME280;38541;48.130;8.378;2023-02-25T00:22:38;91536.03;;;2.37;82.78
52249;BME280;38541;48.130;8.378;2023-02-25T00:25:05;91542.44;;;2.29;82.95
52249;BME280;38541;48.130;8.378;2023-02-25T00:27:32;91543.81;;;2.37;82.89
52249;BME280;38541;48.130;8.378;2023-02-25T00:30:00;91557.00;;;2.35;82.91
52249;BME280;38541;48.130;8.378;2023-02-25T00:32:27;91560.47;;;2.41;82.97
52249;BME280;38541;48.130;8.378;2023-02-25T00:34:54;91563.75;;;2.36;83.08
52249;BME280;38541;48.130;8.378;2023-02-25T00:37:22;91564.72;;;2.30;82.94
52249;BME280;38541;48.130;8.378;2023-02-25T00:39:49;91577.91;;;2.28;83.50
52249;BME280;38541;48.130;8.378;2023-02-25T00:42:16;91587.69;;;2.21;82.98
52249;BME280;38541;48.130;8.378;2023-02-25T00:44:48;91595.69;;;2.20;83.17
52249;BME280;38541;48.130;8.378;2023-02-25T00:47:17;91590.50;;;2.20;83.09
52249;BME280;38541;48.130;8.378;2023-02-25T00:49:45;91589.72;;;2.19;83.37
52249;BME280;38541;48.130;8.378;2023-02-25T00:52:13;91607.13;;;2.24;83.20
52249;BME280;38541;48.130;8.378;2023-02-25T00:54:39;91608.25;;;2.28;82.98
52249;BME280;38541;48.130;8.378;2023-02-25T00:57:06;91604.78;;;2.22;83.00
52249;BME280;38541;48.130;8.378;2023-02-25T00:59:32;91603.22;;;2.21;82.96
52249;BME280;38541;48.130;8.378;2023-02-25T01:01:58;91603.63;;;2.13;82.33
52249;BME280;38541;48.130;8.378;2023-02-25T01:04:25;91607.78;;;2.14;82.60
52249;BME280;38541;48.130;8.378;2023-02-25T01:06:52;91602.44;;;2.21;82.73
52249;BME280;38541;48.130;8.378;2023-02-25T01:09:20;91595.94;;;2.18;82.45
52249;BME280;38541;48.130;8.378;2023-02-25T01:11:47;91603.47;;;2.20;82.81
52249;BME280;38541;48.130;8.378;2023-02-25T01:14:16;91603.97;;;1.99;82.46
52249;BME280;38541;48.130;8.378;2023-02-25T01:16:45;91603.50;;;2.03;82.67
52249;BME280;38541;48.130;8.378;2023-02-25T01:19:15;91599.34;;;2.02;82.16
52249;BME280;38541;48.130;8.378;2023-02-25T01:21:44;91602.75;;;2.07;82.42
52249;BME280;38541;48.130;8.378;2023-02-25T01:24:15;91601.69;;;2.03;82.18
52249;BME280;38541;48.130;8.378;2023-02-25T01:26:44;91600.09;;;2.02;81.64
52249;BME280;38541;48.130;8.378;2023-02-25T01:29:17;91591.19;;;1.93;81.83
52249;BME280;38541;48.130;8.378;2023-02-25T01:31:44;91590.38;;;1.92;81.80
52249;BME280;38541;48.130;8.378;2023-02-25T01:34:14;91593.63;;;1.82;81.15
52249;BME280;38541;48.130;8.378;2023-02-25T01:36:41;91597.78;;;1.83;82.69
52249;BME280;38541;48.130;8.378;2023-02-25T01:39:09;91584.13;;;1.88;82.42
52249;BME280;38541;48.130;8.378;2023-02-25T01:41:37;91603.88;;;1.94;82.13
52249;BME280;38541;48.130;8.378;2023-02-25T01:44:13;91591.41;;;1.91;82.04
52249;BME280;38541;48.130;8.378;2023-02-25T01:46:44;91596.03;;;1.89;81.98
52249;BME280;38541;48.130;8.378;2023-02-25T01:49:26;91594.88;;;1.80;81.56
52249;BME280;38541;48.130;8.378;2023-02-25T01:52:10;91607.53;;;1.76;81.39
52249;BME280;38541;48.130;8.378;2023-02-25T01:54:39;91595.72;;;1.85;81.59
52249;BME280;38541;48.130;8.378;2023-02-25T01:57:08;91603.28;;;1.87;81.57
52249;BME280;38541;48.130;8.378;2023-02-25T01:59:36;91603.28;;;1.87;82.07
52249;BME280;38541;48.130;8.378;2023-02-25T02:02:04;91608.28;;;1.77;82.21
52249;BME280;38541;48.130;8.378;2023-02-25T02:04:32;91615.97;;;1.71;81.03
52249;BME280;38541;48.130;8.378;2023-02-25T02:07:01;91622.72;;;1.73;81.44
52249;BME280;38541;48.130;8.378;2023-02-25T02:09:30;91627.84;;;1.67;80.71
52249;BME280;38541;48.130;8.378;2023-02-25T02:11:58;91630.91;;;1.64;80.88
52249;BME280;38541;48.130;8.378;2023-02-25T02:14:30;91633.56;;;1.69;81.17
52249;BME280;38541;48.130;8.378;2023-02-25T02:42:16;91622.88;;;1.49;81.79
52249;BME280;38541;48.130;8.378;2023-02-25T02:44:57;91624.19;;;1.51;80.96
52249;BME280;38541;48.130;8.378;2023-02-25T02:47:35;91627.66;;;1.57;81.48
52249;BME280;38541;48.130;8.378;2023-02-25T02:50:09;91627.03;;;1.50;80.71
52249;BME280;38541;48.130;8.378;2023-02-25T02:52:45;91635.50;;;1.45;81.24
52249;BME280;38541;48.130;8.378;2023-02-25T02:55:26;91645.16;;;1.50;81.34
52249;BME280;38541;48.130;8.378;2023-02-25T02:58:00;91642.00;;;1.48;80.42
52249;BME280;38541;48.130;8.378;2023-02-25T03:00:33;91636.69;;;1.54;80.36
52249;BME280;38541;48.130;8.378;2023-02-25T03:03:14;91626.41;;;1.60;80.05
52249;BME280;38541;48.130;8.378;2023-02-25T03:05:44;91636.28;;;1.63;80.71
52249;BME280;38541;48.130;8.378;2023-02-25T03:10:43;91637.78;;;1.59;80.19
52249;BME280;38541;48.130;8.378;2023-02-25T03:13:10;91640.06;;;1.55;80.31
52249;BME280;38541;48.130;8.378;2023-02-25T03:15:38;91637.00;;;1.58;80.91
52249;BME280;38541;48.130;8.378;2023-02-25T03:18:14;91632.28;;;1.55;80.45
52249;BME280;38541;48.130;8.378;2023-02-25T03:20:46;91636.38;;;1.51;80.81
52249;BME280;38541;48.130;8.378;2023-02-25T03:23:24;91634.63;;;1.39;80.50
52249;BME280;38541;48.130;8.378;2023-02-25T03:26:08;91628.13;;;1.37;81.22
52249;BME280;38541;48.130;8.378;2023-02-25T03:28:37;91632.41;;;1.31;81.23
52249;BME280;38541;48.130;8.378;2023-02-25T03:34:00;91653.13;;;1.31;81.15
52249;BME280;38541;48.130;8.378;2023-02-25T03:36:42;91640.19;;;1.31;81.46
52249;BME280;38541;48.130;8.378;2023-02-25T03:39:14;91649.59;;;1.37;80.88
52249;BME280;38541;48.130;8.378;2023-02-25T03:41:49;91647.00;;;1.37;80.46
52249;BME280;38541;48.130;8.378;2023-02-25T03:44:21;91663.13;;;1.27;81.57
52249;BME280;38541;48.130;8.378;2023-02-25T03:46:50;91657.81;;;1.34;81.84
52249;BME280;38541;48.130;8.378;2023-02-25T03:49:21;91660.06;;;1.42;81.06
52249;BME280;38541;48.130;8.378;2023-02-25T03:51:50;91660.59;;;1.45;80.97
52249;BME280;38541;48.130;8.378;2023-02-25T03:54:19;91661.78;;;1.54;81.50
52249;BME280;38541;48.130;8.378;2023-02-25T03:56:49;91658.50;;;1.59;81.26
52249;BME280;38541;48.130;8.378;2023-02-25T03:59:17;91657.00;;;1.46;79.91
52249;BME280;38541;48.130;8.378;2023-02-25T04:01:46;91665.22;;;1.42;80.29
52249;BME280;38541;48.130;8.378;2023-02-25T04:04:13;91658.22;;;1.43;81.27
52249;BME280;38541;48.130;8.378;2023-02-25T04:06:40;91659.47;;;1.40;81.05
52249;BME280;38541;48.130;8.378;2023-02-25T04:09:06;91658.00;;;1.45;80.59
52249;BME280;38541;48.130;8.378;2023-02-25T04:11:33;91660.69;;;1.50;81.18
52249;BME280;38541;48.130;8.378;2023-02-25T04:14:00;91667.75;;;1.54;80.26
52249;BME280;38541;48.130;8.378;2023-02-25T04:16:27;91661.00;;;1.53;80.81
52249;BME280;38541;48.130;8.378;2023-02-25T04:18:55;91665.78;;;1.62;80.87
52249;BME280;38541;48.130;8.378;2023-02-25T04:21:33;91668.25;;;1.68;80.69
52249;BME280;38541;48.130;8.378;2023-02-25T04:24:02;91673.09;;;1.65;80.28
52249;BME280;38541;48.130;8.378;2023-02-25T04:26:31;91666.13;;;1.65;80.59
52249;BME280;38541;48.130;8.378;2023-02-25T04:28:57;91664.00;;;1.62;80.23
52249;BME280;38541;48.130;8.378;2023-02-25T04:31:24;91666.59;;;1.62;79.85
52249;BME280;38541;48.130;8.378;2023-02-25T04:33:50;91667.81;;;1.42;80.05
52249;BME280;38541;48.130;8.378;2023-02-25T04:36:35;91666.00;;;1.43;79.99
52249;BME280;38541;48.130;8.378;2023-02-25T04:39:04;91676.69;;;1.47;79.93
52249;BME280;38541;48.130;8.378;2023-02-25T04:41:32;91671.88;;;1.38;79.75
52249;BME280;38541;48.130;8.378;2023-02-25T04:43:59;91676.28;;;1.38;80.72
52249;BME280;38541;48.130;8.378;2023-02-25T04:46:26;91675.13;;;1.46;80.95
52249;BME280;38541;48.130;8.378;2023-02-25T04:48:52;91672.28;;;1.47;81.03
52249;BME280;38541;48.130;8.378;2023-02-25T04:51:19;91674.16;;;1.35;79.44
52249;BME280;38541;48.130;8.378;2023-02-25T04:53:47;91680.56;;;1.32;79.85
52249;BME280;38541;48.130;8.378;2023-02-25T04:56:13;91683.63;;;1.29;80.33
52249;BME280;38541;48.130;8.378;2023-02-25T04:58:40;91671.78;;;1.33;80.21
52249;BME280;38541;48.130;8.378;2023-02-25T05:01:07;91681.03;;;1.29;79.85
52249;BME280;38541;48.130;8.378;2023-02-25T05:03:34;91677.44;;;1.30;79.50
52249;BME280;38541;48.130;8.378;2023-02-25T05:06:02;91674.59;;;1.32;79.74
52249;BME280;38541;48.130;8.378;2023-02-25T05:08:28;91675.06;;;1.28;79.24
52249;BME280;38541;48.130;8.378;2023-02-25T05:10:55;91679.16;;;1.41;79.75
52249;BME280;38541;48.130;8.378;2023-02-25T05:13:22;91674.56;;;1.44;79.37
52249;BME280;38541;48.130;8.378;2023-02-25T05:15:48;91684.91;;;1.44;78.63
52249;BME280;38541;48.130;8.378;2023-02-25T05:18:15;91676.34;;;1.43;78.82
52249;BME280;38541;48.130;8.378;2023-02-25T05:20:43;91681.19;;;1.39;79.71
52249;BME280;38541;48.130;8.378;2023-02-25T05:23:10;91689.13;;;1.33;78.29
52249;BME280;38541;48.130;8.378;2023-02-25T05:25:38;91673.19;;;1.24;78.55
52249;BME280;38541;48.130;8.378;2023-02-25T05:28:10;91675.34;;;1.15;79.47
52249;BME280;38541;48.130;8.378;2023-02-25T05:30:37;91678.78;;;1.21;79.59
52249;BME280;38541;48.130;8.378;2023-02-25T05:33:05;91682.72;;;1.23;79.82
52249;BME280;38541;48.130;8.378;2023-02-25T05:35:32;91684.16;;;1.31;79.32
52249;BME280;38541;48.130;8.378;2023-02-25T05:37:58;91682.47;;;1.37;79.19
52249;BME280;38541;48.130;8.378;2023-02-25T05:40:25;91680.66;;;1.37;78.71
52249;BME280;38541;48.130;8.378;2023-02-25T05:42:52;91680.00;;;1.30;78.70
52249;BME280;38541;48.130;8.378;2023-02-25T05:45:18;91680.56;;;1.32;79.10
52249;BME280;38541;48.130;8.378;2023-02-25T05:47:45;91691.19;;;1.19;77.51
52249;BME280;38541;48.130;8.378;2023-02-25T05:50:11;91683.34;;;1.13;78.09
52249;BME280;38541;48.130;8.378;2023-02-25T05:52:38;91682.88;;;1.17;77.89
52249;BME280;38541;48.130;8.378;2023-02-25T05:55:05;91686.72;;;1.14;78.34
52249;BME280;38541;48.130;8.378;2023-02-25T05:57:34;91685.91;;;1.13;78.36
52249;BME280;38541;48.130;8.378;2023-02-25T06:00:00;91684.84;;;1.26;78.44
52249;BME280;38541;48.130;8.378;2023-02-25T06:02:27;91692.41;;;1.28;78.10
52249;BME280;38541;48.130;8.378;2023-02-25T06:04:53;91695.53;;;1.30;77.66
52249;BME280;38541;48.130;8.378;2023-02-25T06:07:20;91699.69;;;1.31;78.33
52249;BME280;38541;48.130;8.378;2023-02-25T06:09:46;91697.91;;;1.20;77.17
52249;BME280;38541;48.130;8.378;2023-02-25T06:12:13;91698.25;;;1.23;77.30
52249;BME280;38541;48.130;8.378;2023-02-25T06:14:39;91701.19;;;1.27;77.86
52249;BME280;38541;48.130;8.378;2023-02-25T06:17:05;91706.09;;;1.28;78.23
52249;BME280;38541;48.130;8.378;2023-02-25T06:19:32;91712.41;;;1.33;77.29
52249;BME280;38541;48.130;8.378;2023-02-25T06:21:58;91703.16;;;1.37;77.82
52249;BME280;38541;48.130;8.378;2023-02-25T06:24:25;91700.56;;;1.37;77.81
52249;BME280;38541;48.130;8.378;2023-02-25T06:26:51;91707.81;;;1.23;76.82
52249;BME280;38541;48.130;8.378;2023-02-25T06:29:18;91702.06;;;1.21;76.65
52249;BME280;38541;48.130;8.378;2023-02-25T06:31:45;91707.03;;;1.22;77.03
52249;BME280;38541;48.130;8.378;2023-02-25T06:34:12;91699.50;;;1.21;77.08
52249;BME280;38541;48.130;8.378;2023-02-25T06:36:38;91699.50;;;1.21;77.03
52249;BME280;38541;48.130;8.378;2023-02-25T06:39:04;91709.28;;;1.19;77.10
52249;BME280;38541;48.130;8.378;2023-02-25T06:41:31;91705.13;;;1.18;77.15
52249;BME280;38541;48.130;8.378;2023-02-25T06:43:57;91703.22;;;1.25;76.98
52249;BME280;38541;48.130;8.378;2023-02-25T06:46:24;91708.19;;;1.14;76.11
52249;BME280;38541;48.130;8.378;2023-02-25T06:48:52;91724.97;;;1.00;75.46
52249;BME280;38541;48.130;8.378;2023-02-25T06:51:19;91727.69;;;0.93;76.41
52249;BME280;38541;48.130;8.378;2023-02-25T06:53:45;91731.97;;;0.88;75.73
52249;BME280;38541;48.130;8.378;2023-02-25T06:56:13;91742.31;;;0.88;75.93
52249;BME280;38541;48.130;8.378;2023-02-25T06:58:41;91747.91;;;0.84;75.88
52249;BME280;38541;48.130;8.378;2023-02-25T07:01:09;91749.06;;;0.89;75.99
52249;BME280;38541;48.130;8.378;2023-02-25T07:03:36;91763.31;;;0.91;75.65
52249;BME280;38541;48.130;8.378;2023-02-25T07:06:02;91767.72;;;0.91;75.69
52249;BME280;38541;48.130;8.378;2023-02-25T07:08:29;91764.00;;;0.98;76.10
52249;BME280;38541;48.130;8.378;2023-02-25T07:11:24;91768.25;;;1.05;75.73
52249;BME280;38541;48.130;8.378;2023-02-25T07:13:52;91765.22;;;1.08;74.90
52249;BME280;38541;48.130;8.378;2023-02-25T07:16:18;91758.69;;;1.17;76.38
52249;BME280;38541;48.130;8.378;2023-02-25T07:18:46;91770.56;;;1.30;75.59
52249;BME280;38541;48.130;8.378;2023-02-25T07:21:13;91762.47;;;1.26;73.75
52249;BME280;38541;48.130;8.378;2023-02-25T07:23:41;91757.41;;;1.20;73.54
52249;BME280;38541;48.130;8.378;2023-02-25T07:26:10;91762.72;;;1.25;73.45
52249;BME280;38541;48.130;8.378;2023-02-25T07:28:38;91762.81;;;1.30;73.55
52249;BME280;38541;48.130;8.378;2023-02-25T07:31:16;91757.38;;;1.44;73.86
52249;BME280;38541;48.130;8.378;2023-02-25T07:33:43;91757.72;;;1.35;72.71
52249;BME280;38541;48.130;8.378;2023-02-25T07:36:10;91756.72;;;1.36;72.22
52249;BME280;38541;48.130;8.378;2023-02-25T07:38:37;91754.72;;;1.26;72.13
52249;BME280;38541;48.130;8.378;2023-02-25T07:41:09;91765.56;;;1.40;72.94
52249;BME280;38541;48.130;8.378;2023-02-25T07:43:36;91762.50;;;1.55;73.22
52249;BME280;38541;48.130;8.378;2023-02-25T07:46:03;91763.75;;;1.53;71.84
52249;BME280;38541;48.130;8.378;2023-02-25T07:48:30;91757.94;;;1.46;70.96
52249;BME280;38541;48.130;8.378;2023-02-25T07:51:07;91762.19;;;1.52;71.73
52249;BME280;38541;48.130;8.378;2023-02-25T07:53:34;91754.03;;;1.60;72.37
52249;BME280;38541;48.130;8.378;2023-02-25T07:56:01;91753.84;;;1.50;70.72
52249;BME280;38541;48.130;8.378;2023-02-25T07:58:27;91757.34;;;1.55;71.48
52249;BME280;38541;48.130;8.378;2023-02-25T08:00:54;91751.28;;;1.50;70.21
52249;BME280;38541;48.130;8.378;2023-02-25T08:03:20;91745.53;;;1.48;70.71
52249;BME280;38541;48.130;8.378;2023-02-25T08:05:50;91750.44;;;1.61;71.10
52249;BME280;38541;48.130;8.378;2023-02-25T08:08:16;91756.72;;;1.65;70.22
52249;BME280;38541;48.130;8.378;2023-02-25T08:10:43;91752.56;;;1.64;69.80
52249;BME280;38541;48.130;8.378;2023-02-25T08:13:10;91745.44;;;1.71;69.47
52249;BME280;38541;48.130;8.378;2023-02-25T08:15:41;91743.25;;;1.63;67.94
52249;BME280;38541;48.130;8.378;2023-02-25T08:18:08;91746.19;;;1.84;69.11
52249;BME280;38541;48.130;8.378;2023-02-25T08:20:35;91747.13;;;1.95;68.89
52249;BME280;38541;48.130;8.378;2023-02-25T08:23:02;91742.44;;;2.09;68.56
52249;BME280;38541;48.130;8.378;2023-02-25T08:25:29;91737.03;;;2.27;68.16
52249;BME280;38541;48.130;8.378;2023-02-25T08:27:55;91738.66;;;2.17;67.48
52249;BME280;38541;48.130;8.378;2023-02-25T08:30:23;91745.28;;;2.24;67.13
52249;BME280;38541;48.130;8.378;2023-02-25T08:32:49;91748.00;;;2.18;67.65
52249;BME280;38541;48.130;8.378;2023-02-25T08:35:16;91746.91;;;2.13;66.81
52249;BME280;38541;48.130;8.378;2023-02-25T08:37:43;91748.50;;;2.14;67.12
52249;BME280;38541;48.130;8.378;2023-02-25T08:40:10;91759.47;;;2.22;66.50
52249;BME280;38541;48.130;8.378;2023-02-25T08:42:38;91744.06;;;2.15;64.09
52249;BME280;38541;48.130;8.378;2023-02-25T08:45:05;91751.41;;;2.18;64.81
52249;BME280;38541;48.130;8.378;2023-02-25T08:47:32;91752.25;;;2.07;65.52
52249;BME280;38541;48.130;8.378;2023-02-25T08:49:59;91757.44;;;2.07;65.79
52249;BME280;38541;48.130;8.378;2023-02-25T08:52:26;91754.72;;;1.84;66.13
52249;BME280;38541;48.130;8.378;2023-02-25T08:55:00;91755.16;;;1.64;68.06
52249;BME280;38541;48.130;8.378;2023-02-25T08:57:28;91754.63;;;1.79;69.24
52249;BME280;38541;48.130;8.378;2023-02-25T08:59:55;91745.25;;;1.90;69.01
52249;BME280;38541;48.130;8.378;2023-02-25T09:02:21;91735.22;;;1.94;68.49
52249;BME280;38541;48.130;8.378;2023-02-25T09:04:49;91742.59;;;2.19;67.33
52249;BME280;38541;48.130;8.378;2023-02-25T09:07:16;91744.94;;;2.21;68.29
52249;BME280;38541;48.130;8.378;2023-02-25T09:09:42;91731.38;;;2.13;67.36
52249;BME280;38541;48.130;8.378;2023-02-25T09:12:09;91734.34;;;2.22;67.92
52249;BME280;38541;48.130;8.378;2023-02-25T09:14:36;91733.88;;;2.25;67.46
52249;BME280;38541;48.130;8.378;2023-02-25T09:17:04;91721.47;;;2.27;66.00
52249;BME280;38541;48.130;8.378;2023-02-25T09:19:31;91727.13;;;2.24;65.21
52249;BME280;38541;48.130;8.378;2023-02-25T09:21:57;91723.03;;;2.28;66.47
52249;BME280;38541;48.130;8.378;2023-02-25T09:24:24;91726.66;;;2.27;66.90
52249;BME280;38541;48.130;8.378;2023-02-25T09:26:52;91727.47;;;2.28;67.27
52249;BME280;38541;48.130;8.378;2023-02-25T09:29:19;91739.22;;;2.19;66.51
52249;BME280;38541;48.130;8.378;2023-02-25T09:31:45;91737.25;;;1.92;67.38
52249;BME280;38541;48.130;8.378;2023-02-25T09:34:12;91753.09;;;1.95;66.29
52249;BME280;38541;48.130;8.378;2023-02-25T09:36:39;91747.19;;;1.83;65.33
52249;BME280;38541;48.130;8.378;2023-02-25T09:39:05;91745.56;;;1.94;67.37
52249;BME280;38541;48.130;8.378;2023-02-25T09:41:52;91754.09;;;1.94;67.73
52249;BME280;38541;48.130;8.378;2023-02-25T09:44:38;91752.38;;;1.83;66.34
52249;BME280;38541;48.130;8.378;2023-02-25T09:47:25;91753.94;;;1.84;66.42
52249;BME280;38541;48.130;8.378;2023-02-25T09:52:34;91742.53;;;2.31;66.53
52249;BME280;38541;48.130;8.378;2023-02-25T09:57:58;91746.28;;;2.40;65.57
52249;BME280;38541;48.130;8.378;2023-02-25T10:00:30;91744.72;;;2.22;64.89
52249;BME280;38541;48.130;8.378;2023-02-25T10:03:16;91745.50;;;2.06;63.79
52249;BME280;38541;48.130;8.378;2023-02-25T10:05:54;91750.06;;;2.16;64.81
52249;BME280;38541;48.130;8.378;2023-02-25T10:08:38;91752.09;;;2.31;64.17
52249;BME280;38541;48.130;8.378;2023-02-25T10:11:16;91741.41;;;2.44;64.45
52249;BME280;38541;48.130;8.378;2023-02-25T10:13:52;91737.03;;;2.84;62.48
52249;BME280;38541;48.130;8.378;2023-02-25T10:19:27;91733.34;;;2.80;63.66
52249;BME280;38541;48.130;8.378;2023-02-25T10:24:53;91734.22;;;2.85;62.64
52249;BME280;38541;48.130;8.378;2023-02-25T10:27:32;91731.38;;;2.87;62.84
52249;BME280;38541;48.130;8.378;2023-02-25T10:30:14;91730.19;;;2.95;63.61
52249;BME280;38541;48.130;8.378;2023-02-25T10:32:42;91729.56;;;2.88;62.47
52249;BME280;38541;48.130;8.378;2023-02-25T10:35:32;91729.06;;;3.08;61.79
52249;BME280;38541;48.130;8.378;2023-02-25T10:37:59;91723.38;;;3.11;61.92
52249;BME280;38541;48.130;8.378;2023-02-25T10:40:26;91726.63;;;3.01;61.55
52249;BME280;38541;48.130;8.378;2023-02-25T10:43:06;91723.59;;;2.87;63.12
52249;BME280;38541;48.130;8.378;2023-02-25T10:45:37;91718.72;;;3.13;61.29
52249;BME280;38541;48.130;8.378;2023-02-25T10:48:06;91720.41;;;3.24;60.50
52249;BME280;38541;48.130;8.378;2023-02-25T10:50:38;91703.72;;;3.42;58.90
52249;BME280;38541;48.130;8.378;2023-02-25T10:53:16;91712.88;;;3.73;59.81
52249;BME280;38541;48.130;8.378;2023-02-25T11:00:59;91705.66;;;3.30;58.32
52249;BME280;38541;48.130;8.378;2023-02-25T11:03:29;91715.63;;;3.16;60.63
52249;BME280;38541;48.130;8.378;2023-02-25T11:06:08;91726.09;;;2.99;59.55
52249;BME280;38541;48.130;8.378;2023-02-25T11:08:35;91711.69;;;2.69;59.15
52249;BME280;38541;48.130;8.378;2023-02-25T11:11:23;91712.22;;;2.71;60.71
52249;BME280;38541;48.130;8.378;2023-02-25T11:14:01;91719.66;;;2.84;60.33
52249;BME280;38541;48.130;8.378;2023-02-25T11:16:30;91714.00;;;2.88;60.47
52249;BME280;38541;48.130;8.378;2023-02-25T11:18:59;91709.88;;;2.92;59.71
52249;BME280;38541;48.130;8.378;2023-02-25T11:21:36;91697.59;;;3.04;60.13
52249;BME280;38541;48.130;8.378;2023-02-25T11:24:11;91700.78;;;3.11;58.73
52249;BME280;38541;48.130;8.378;2023-02-25T11:26:42;91698.13;;;3.06;59.08
52249;BME280;38541;48.130;8.378;2023-02-25T11:29:18;91698.72;;;2.69;57.03
52249;BME280;38541;48.130;8.378;2023-02-25T11:31:51;91692.38;;;2.82;59.44
52249;BME280;38541;48.130;8.378;2023-02-25T11:34:29;91687.22;;;3.26;59.12
52249;BME280;38541;48.130;8.378;2023-02-25T11:39:54;91686.22;;;3.82;56.36
52249;BME280;38541;48.130;8.378;2023-02-25T11:42:22;91676.09;;;3.86;56.91
52249;BME280;38541;48.130;8.378;2023-02-25T11:44:58;91676.41;;;3.62;54.46
52249;BME280;38541;48.130;8.378;2023-02-25T11:47:30;91676.91;;;3.59;54.91
52249;BME280;38541;48.130;8.378;2023-02-25T11:50:30;91691.09;;;3.51;53.91
52249;BME280;38541;48.130;8.378;2023-02-25T11:53:23;91695.13;;;3.64;54.04
52249;BME280;38541;48.130;8.378;2023-02-25T11:56:10;91670.59;;;4.10;54.63
52249;BME280;38541;48.130;8.378;2023-02-25T11:58:51;91693.88;;;3.99;52.68
52249;BME280;38541;48.130;8.378;2023-02-25T12:01:39;91679.94;;;3.51;53.94
52249;BME280;38541;48.130;8.378;2023-02-25T12:18:47;91682.75;;;4.90;50.70
52249;BME280;38541;48.130;8.378;2023-02-25T12:27:46;91668.50;;;4.50;53.58
52249;BME280;38541;48.130;8.378;2023-02-25T12:31:01;91665.63;;;4.99;50.73
52249;BME280;38541;48.130;8.378;2023-02-25T12:33:49;91674.78;;;5.07;50.53
52249;BME280;38541;48.130;8.378;2023-02-25T12:36:28;91667.72;;;5.08;50.80
52249;BME280;38541;48.130;8.378;2023-02-25T12:39:14;91685.16;;;5.02;50.99
52249;BME280;38541;48.130;8.378;2023-02-25T12:41:46;91684.44;;;4.64;51.79
52249;BME280;38541;48.130;8.378;2023-02-25T12:44:44;91676.09;;;4.62;52.73
52249;BME280;38541;48.130;8.378;2023-02-25T12:47:31;91675.03;;;4.57;51.63
52249;BME280;38541;48.130;8.378;2023-02-25T12:50:13;91674.56;;;4.23;51.90
52249;BME280;38541;48.130;8.378;2023-02-25T12:58:42;91711.84;;;3.24;55.19
52249;BME280;38541;48.130;8.378;2023-02-25T13:01:19;91710.81;;;3.03;55.64
52249;BME280;38541;48.130;8.378;2023-02-25T13:14:44;91700.38;;;2.75;56.48
52249;BME280;38541;48.130;8.378;2023-02-25T13:17:34;91694.53;;;2.85;56.93
52249;BME280;38541;48.130;8.378;2023-02-25T13:20:22;91691.44;;;2.88;56.77
52249;BME280;38541;48.130;8.378;2023-02-25T13:23:04;91705.88;;;3.01;56.82
52249;BME280;38541;48.130;8.378;2023-02-25T13:31:07;91694.16;;;3.21;54.75
52249;BME280;38541;48.130;8.378;2023-02-25T13:36:31;91687.38;;;3.69;55.62
52249;BME280;38541;48.130;8.378;2023-02-25T13:39:30;91684.81;;;4.40;54.78
52249;BME280;38541;48.130;8.378;2023-02-25T13:50:39;91681.47;;;5.72;49.59
52249;BME280;38541;48.130;8.378;2023-02-25T14:01:42;91689.88;;;6.16;46.38
52249;BME280;38541;48.130;8.378;2023-02-25T14:10:10;91674.09;;;5.33;50.02
52249;BME280;38541;48.130;8.378;2023-02-25T14:12:52;91679.13;;;5.70;49.75
52249;BME280;38541;48.130;8.378;2023-02-25T14:18:18;91666.56;;;5.52;48.51
52249;BME280;38541;48.130;8.378;2023-02-25T14:21:15;91674.09;;;5.48;49.10
52249;BME280;38541;48.130;8.378;2023-02-25T14:29:39;91675.03;;;4.52;49.32
52249;BME280;38541;48.130;8.378;2023-02-25T14:32:36;91667.66;;;4.39;49.99
52249;BME280;38541;48.130;8.378;2023-02-25T14:35:45;91668.06;;;4.25;50.45
52249;BME280;38541;48.130;8.378;2023-02-25T14:38:25;91675.84;;;4.20;50.28
52249;BME280;38541;48.130;8.378;2023-02-25T14:43:34;91681.72;;;4.43;50.48
52249;BME280;38541;48.130;8.378;2023-02-25T14:46:27;91685.13;;;4.49;49.69
52249;BME280;38541;48.130;8.378;2023-02-25T15:03:08;91691.28;;;3.45;53.50
52249;BME280;38541;48.130;8.378;2023-02-25T15:11:15;91689.88;;;3.32;53.73
52249;BME280;38541;48.130;8.378;2023-02-25T15:19:43;91698.16;;;3.56;54.18
52249;BME280;38541;48.130;8.378;2023-02-25T15:22:21;91702.72;;;3.71;53.86
52249;BME280;38541;48.130;8.378;2023-02-25T15:24:50;91697.97;;;3.90;54.08
52249;BME280;38541;48.130;8.378;2023-02-25T15:30:05;91703.09;;;3.85;53.87
52249;BME280;38541;48.130;8.378;2023-02-25T15:38:11;91721.31;;;3.13;56.23
52249;BME280;38541;48.130;8.378;2023-02-25T15:40:51;91723.78;;;3.03;56.51
52249;BME280;38541;48.130;8.378;2023-02-25T15:45:48;91724.84;;;2.84;56.79
52249;BME280;38541;48.130;8.378;2023-02-25T15:55:47;91736.38;;;2.37;57.80
52249;BME280;38541;48.130;8.378;2023-02-25T16:03:39;91752.25;;;2.24;59.08
52249;BME280;38541;48.130;8.378;2023-02-25T16:06:28;91747.06;;;2.24;59.16
52249;BME280;38541;48.130;8.378;2023-02-25T16:09:11;91751.41;;;2.35;58.76
52249;BME280;38541;48.130;8.378;2023-02-25T16:11:50;91747.84;;;2.41;59.25
52249;BME280;38541;48.130;8.378;2023-02-25T16:14:27;91747.38;;;2.62;59.19
52249;BME280;38541;48.130;8.378;2023-02-25T16:16:58;91754.69;;;2.65;58.48
52249;BME280;38541;48.130;8.378;2023-02-25T16:19:28;91742.81;;;2.69;58.29
52249;BME280;38541;48.130;8.378;2023-02-25T16:22:00;91749.97;;;2.62;59.45
52249;BME280;38541;48.130;8.378;2023-02-25T16:24:29;91753.97;;;2.52;59.42
52249;BME280;38541;48.130;8.378;2023-02-25T16:32:08;91751.16;;;2.37;59.73
52249;BME280;38541;48.130;8.378;2023-02-25T16:34:45;91757.28;;;2.31;59.84
52249;BME280;38541;48.130;8.378;2023-02-25T16:37:43;91754.91;;;2.12;60.56